createdAt,value
2017-09-27T00:00:54.683Z,16.66
2017-09-27T00:01:54.724Z,16.71
2017-09-27T00:03:51.251Z,16.64
2017-09-27T00:04:51.156Z,16.63
2017-09-27T00:06:44.788Z,16.63
2017-09-27T00:07:44.948Z,16.63
2017-09-27T00:09:39.324Z,16.60
2017-09-27T00:10:39.333Z,16.57
2017-09-27T00:12:35.213Z,16.52
2017-09-27T00:13:35.220Z,16.50
2017-09-27T00:15:29.836Z,16.57
2017-09-27T00:16:29.988Z,16.56
2017-09-27T00:18:24.189Z,16.57
2017-09-27T00:19:24.268Z,16.52
2017-09-27T00:21:18.708Z,16.46
2017-09-27T00:22:18.764Z,16.50
2017-09-27T00:24:22.413Z,16.46
2017-09-27T00:25:13.269Z,16.42
2017-09-27T00:27:07.794Z,16.45
2017-09-27T00:28:07.837Z,16.50
2017-09-27T00:30:03.773Z,16.39
2017-09-27T00:31:03.797Z,16.34
2017-09-27T00:32:58.340Z,16.43
2017-09-27T00:33:58.286Z,16.38
2017-09-27T00:35:52.773Z,16.42
2017-09-27T00:36:52.853Z,16.31
2017-09-27T00:38:46.237Z,16.31
2017-09-27T00:39:46.374Z,16.33
2017-09-27T00:41:40.995Z,16.27
2017-09-27T00:42:40.830Z,16.30
2017-09-27T00:44:48.486Z,16.27
2017-09-27T00:45:48.558Z,16.27
2017-09-27T00:47:44.431Z,16.28
2017-09-27T00:48:51.974Z,16.23
2017-09-27T00:50:40.726Z,16.17
2017-09-27T00:51:40.510Z,16.20
2017-09-27T00:53:36.478Z,16.17
2017-09-27T00:54:36.502Z,16.09
2017-09-27T00:56:33.190Z,16.15
2017-09-27T00:57:33.030Z,16.08
2017-09-27T00:59:26.690Z,16.12
2017-09-27T01:00:26.527Z,16.07
2017-09-27T01:02:21.119Z,16.14
2017-09-27T01:03:21.103Z,16.12
2017-09-27T01:05:15.534Z,16.09
2017-09-27T01:06:23.135Z,16.02
2017-09-27T01:08:10.063Z,16.07
2017-09-27T01:09:10.151Z,16.05
2017-09-27T01:11:06.079Z,16.02
2017-09-27T01:12:06.024Z,16.01
2017-09-27T01:14:00.743Z,16.07
2017-09-27T01:15:00.719Z,16.02
2017-09-27T01:16:55.690Z,16.05
2017-09-27T01:18:04.384Z,15.96
2017-09-27T01:19:52.487Z,15.93
2017-09-27T01:20:52.400Z,16.00
2017-09-27T01:22:46.720Z,15.96
2017-09-27T01:23:46.728Z,15.96
2017-09-27T01:25:40.456Z,15.96
2017-09-27T01:26:40.296Z,15.92
2017-09-27T01:28:34.735Z,15.97
2017-09-27T01:29:34.904Z,15.94
2017-09-27T01:31:29.271Z,15.89
2017-09-27T01:32:29.335Z,15.90
2017-09-27T01:34:23.799Z,15.92
2017-09-27T01:35:23.808Z,15.96
2017-09-27T01:37:18.668Z,15.90
2017-09-27T01:38:18.512Z,15.89
2017-09-27T01:40:12.960Z,15.84
2017-09-27T01:41:13.000Z,15.87
2017-09-27T01:43:08.824Z,15.87
2017-09-27T01:44:08.977Z,15.84
2017-09-27T01:46:03.280Z,15.69
2017-09-27T01:47:11.833Z,15.78
2017-09-27T01:48:57.777Z,15.93
2017-09-27T01:49:57.745Z,15.76
2017-09-27T01:51:52.161Z,15.89
2017-09-27T01:52:52.337Z,15.86
2017-09-27T01:54:46.672Z,15.83
2017-09-27T01:55:46.729Z,15.86
2017-09-27T01:57:40.225Z,15.84
2017-09-27T01:58:40.219Z,15.86
2017-09-27T02:00:34.641Z,15.80
2017-09-27T02:01:34.689Z,15.74
2017-09-27T02:03:29.129Z,15.86
2017-09-27T02:04:36.985Z,15.76
2017-09-27T02:06:23.665Z,15.76
2017-09-27T02:07:23.793Z,15.80
2017-09-27T02:09:19.817Z,15.80
2017-09-27T02:10:19.889Z,15.80
2017-09-27T02:12:14.419Z,15.74
2017-09-27T02:13:14.348Z,15.86
2017-09-27T02:15:09.139Z,15.78
2017-09-27T02:16:08.979Z,15.82
2017-09-27T02:18:03.251Z,15.84
2017-09-27T02:19:03.371Z,15.83
2017-09-27T02:20:57.867Z,15.78
2017-09-27T02:21:57.772Z,15.78
2017-09-27T02:23:51.204Z,15.84
2017-09-27T02:24:51.347Z,15.75
2017-09-27T02:26:48.700Z,15.76
2017-09-27T02:27:47.515Z,15.72
2017-09-27T02:29:41.923Z,15.78
2017-09-27T02:30:42.115Z,15.69
2017-09-27T02:32:36.467Z,15.75
2017-09-27T02:33:36.547Z,15.71
2017-09-27T02:35:29.922Z,15.74
2017-09-27T02:36:30.044Z,15.72
2017-09-27T02:38:24.572Z,15.71
2017-09-27T02:39:24.571Z,15.72
2017-09-27T02:41:19.052Z,15.75
2017-09-27T02:42:19.099Z,15.80
2017-09-27T02:44:13.539Z,15.65
2017-09-27T02:45:13.459Z,15.56
2017-09-27T02:47:07.964Z,15.56
2017-09-27T02:48:07.956Z,15.57
2017-09-27T02:50:02.542Z,15.65
2017-09-27T02:51:02.502Z,15.57
2017-09-27T02:52:58.892Z,15.62
2017-09-27T02:53:59.115Z,15.57
2017-09-27T02:55:53.381Z,15.68
2017-09-27T02:56:53.468Z,15.64
2017-09-27T02:58:49.597Z,15.57
2017-09-27T02:59:49.580Z,15.57
2017-09-27T03:01:43.148Z,15.65
2017-09-27T03:02:42.998Z,15.62
2017-09-27T03:04:37.580Z,15.59
2017-09-27T03:05:37.540Z,15.57
2017-09-27T03:07:33.564Z,15.65
2017-09-27T03:08:33.623Z,15.64
2017-09-27T03:10:36.700Z,15.65
2017-09-27T03:11:27.996Z,15.56
2017-09-27T03:13:22.444Z,15.60
2017-09-27T03:14:22.604Z,15.59
2017-09-27T03:16:17.021Z,15.57
2017-09-27T03:17:17.133Z,15.56
2017-09-27T03:19:11.541Z,15.60
2017-09-27T03:20:11.549Z,15.57
2017-09-27T03:22:06.076Z,15.62
2017-09-27T03:23:06.156Z,15.57
2017-09-27T03:24:59.581Z,15.56
2017-09-27T03:26:07.253Z,15.51
2017-09-27T03:27:54.015Z,15.57
2017-09-27T03:28:54.127Z,15.60
2017-09-27T03:30:50.120Z,15.57
2017-09-27T03:31:50.064Z,15.54
2017-09-27T03:33:46.103Z,15.60
2017-09-27T03:34:46.143Z,15.57
2017-09-27T03:36:40.575Z,15.59
2017-09-27T03:37:40.584Z,15.54
2017-09-27T03:39:36.655Z,15.56
2017-09-27T03:40:36.737Z,15.51
2017-09-27T03:42:31.016Z,15.56
2017-09-27T03:43:41.215Z,15.49
2017-09-27T03:45:26.775Z,15.53
2017-09-27T03:46:26.600Z,15.59
2017-09-27T03:48:21.113Z,15.54
2017-09-27T03:49:21.088Z,15.51
2017-09-27T03:51:17.000Z,15.51
2017-09-27T03:52:17.112Z,15.51
2017-09-27T03:54:11.569Z,15.53
2017-09-27T03:55:11.632Z,15.56
2017-09-27T03:57:07.576Z,15.56
2017-09-27T03:58:07.584Z,15.51
2017-09-27T04:00:02.121Z,15.53
2017-09-27T04:01:10.697Z,15.53
2017-09-27T04:02:56.649Z,15.51
2017-09-27T04:04:05.425Z,15.49
2017-09-27T04:05:50.284Z,15.50
2017-09-27T04:06:50.377Z,15.49
2017-09-27T04:08:43.921Z,15.53
2017-09-27T04:09:43.897Z,15.51
2017-09-27T04:11:38.497Z,15.56
2017-09-27T04:12:38.529Z,15.51
2017-09-27T04:14:33.153Z,15.53
2017-09-27T04:15:33.113Z,15.44
2017-09-27T04:19:11.153Z,15.56
2017-09-27T04:20:11.289Z,15.53
2017-09-27T04:22:04.825Z,15.54
2017-09-27T04:23:13.257Z,15.49
2017-09-27T04:25:10.873Z,15.56
2017-09-27T04:26:10.850Z,15.51
2017-09-27T04:28:06.345Z,15.50
2017-09-27T04:29:05.489Z,15.47
2017-09-27T04:30:59.930Z,15.57
2017-09-27T04:31:59.873Z,15.46
2017-09-27T04:35:35.098Z,15.53
2017-09-27T04:36:35.330Z,15.51
2017-09-27T04:38:29.802Z,15.51
2017-09-27T04:39:29.610Z,15.57
2017-09-27T04:41:24.202Z,15.53
2017-09-27T04:42:24.122Z,15.50
2017-09-27T04:44:17.234Z,15.50
2017-09-27T04:45:17.266Z,15.47
2017-09-27T04:47:23.322Z,15.51
2017-09-27T04:48:23.554Z,15.50
2017-09-27T04:50:29.436Z,15.49
2017-09-27T04:51:30.075Z,15.56
2017-09-27T04:53:23.914Z,15.53
2017-09-27T04:54:24.403Z,15.53
2017-09-27T04:56:17.890Z,15.56
2017-09-27T04:57:17.450Z,15.51
2017-09-27T04:59:13.527Z,15.51
2017-09-27T05:00:13.701Z,15.57
2017-09-27T05:02:21.640Z,15.54
2017-09-27T05:03:21.479Z,15.51
2017-09-27T05:05:17.355Z,15.51
2017-09-27T05:06:18.690Z,15.56
2017-09-27T05:08:10.476Z,15.60
2017-09-27T05:09:10.586Z,15.51
2017-09-27T05:11:06.490Z,15.59
2017-09-27T05:12:06.442Z,15.51
2017-09-27T05:14:01.674Z,15.62
2017-09-27T05:15:01.235Z,15.57
2017-09-27T05:16:55.705Z,15.60
2017-09-27T05:17:54.706Z,15.60
2017-09-27T05:19:48.937Z,15.60
2017-09-27T05:20:49.217Z,15.62
2017-09-27T05:22:44.568Z,15.62
2017-09-27T05:23:53.183Z,15.59
2017-09-27T05:25:38.977Z,15.62
2017-09-27T05:26:39.144Z,15.62
2017-09-27T05:28:32.424Z,15.59
2017-09-27T05:29:32.535Z,15.57
2017-09-27T05:31:26.992Z,15.59
2017-09-27T05:32:27.048Z,15.74
2017-09-27T05:34:21.440Z,15.64
2017-09-27T05:35:21.560Z,15.72
2017-09-27T05:37:17.457Z,15.72
2017-09-27T05:38:17.640Z,15.68
2017-09-27T05:40:10.985Z,15.74
2017-09-27T05:41:10.984Z,15.82
2017-09-27T05:43:05.489Z,15.75
2017-09-27T05:44:05.537Z,15.72
2017-09-27T05:46:00.009Z,15.76
2017-09-27T05:47:00.009Z,15.74
2017-09-27T05:48:54.488Z,15.76
2017-09-27T05:49:54.523Z,15.75
2017-09-27T05:51:48.948Z,15.72
2017-09-27T05:52:49.009Z,15.75
2017-09-27T05:54:43.545Z,15.69
2017-09-27T05:55:43.537Z,15.78
2017-09-27T05:57:37.953Z,15.72
2017-09-27T05:58:38.009Z,15.74
2017-09-27T06:00:32.465Z,15.74
2017-09-27T06:01:32.473Z,15.78
2017-09-27T06:03:26.954Z,15.76
2017-09-27T06:04:27.017Z,15.74
2017-09-27T06:06:21.507Z,15.72
2017-09-27T06:07:21.529Z,15.71
2017-09-27T06:09:15.969Z,15.74
2017-09-27T06:10:16.034Z,15.69
2017-09-27T06:12:10.522Z,15.78
2017-09-27T06:13:10.489Z,15.86
2017-09-27T06:15:16.489Z,15.78
2017-09-27T06:16:16.530Z,15.78
2017-09-27T06:18:10.970Z,15.76
2017-09-27T06:19:11.042Z,15.75
2017-09-27T06:21:05.499Z,15.87
2017-09-27T06:22:05.515Z,15.83
2017-09-27T06:23:58.978Z,15.90
2017-09-27T06:24:59.106Z,15.96
2017-09-27T06:26:53.475Z,15.83
2017-09-27T06:27:53.506Z,15.90
2017-09-27T06:29:56.666Z,15.90
2017-09-27T06:30:47.979Z,15.96
2017-09-27T06:32:44.019Z,15.93
2017-09-27T06:33:44.071Z,15.92
2017-09-27T06:35:39.987Z,15.97
2017-09-27T06:36:39.995Z,15.94
2017-09-27T06:38:34.508Z,16.01
2017-09-27T06:39:34.563Z,16.01
2017-09-27T06:41:28.980Z,16.01
2017-09-27T06:42:29.051Z,16.08
2017-09-27T06:44:23.460Z,16.07
2017-09-27T06:45:23.492Z,16.07
2017-09-27T06:47:18.028Z,16.15
2017-09-27T06:48:18.028Z,16.14
2017-09-27T06:50:12.460Z,16.14
2017-09-27T06:51:12.516Z,16.23
2017-09-27T06:53:06.964Z,16.21
2017-09-27T06:54:07.028Z,16.20
2017-09-27T06:56:01.532Z,16.20
2017-09-27T06:57:01.508Z,16.25
2017-09-27T06:58:55.965Z,16.39
2017-09-27T06:59:56.021Z,16.42
2017-09-27T07:01:50.533Z,16.43
2017-09-27T07:02:50.550Z,16.50
2017-09-27T07:04:45.034Z,16.50
2017-09-27T07:05:45.071Z,16.56
2017-09-27T07:07:39.492Z,16.48
2017-09-27T07:08:39.516Z,16.61
2017-09-27T07:10:33.997Z,16.58
2017-09-27T07:11:34.077Z,16.63
2017-09-27T07:13:28.509Z,16.73
2017-09-27T07:14:28.549Z,16.73
2017-09-27T07:16:23.061Z,16.78
2017-09-27T07:17:23.037Z,16.83
2017-09-27T07:19:16.517Z,16.97
2017-09-27T07:20:25.187Z,17.04
2017-09-27T07:22:11.005Z,17.08
2017-09-27T07:23:11.037Z,17.07
2017-09-27T07:25:05.525Z,17.21
2017-09-27T07:26:05.541Z,17.16
2017-09-27T07:28:00.006Z,17.25
2017-09-27T07:29:00.063Z,17.30
2017-09-27T07:30:54.533Z,17.41
2017-09-27T07:31:54.566Z,17.43
2017-09-27T07:33:48.287Z,17.51
2017-09-27T07:34:48.270Z,17.63
2017-09-27T07:36:42.726Z,17.68
2017-09-27T07:37:42.782Z,17.74
2017-09-27T07:39:36.240Z,17.81
2017-09-27T07:40:36.286Z,17.87
2017-09-27T07:42:30.862Z,18.12
2017-09-27T07:43:30.763Z,18.11
2017-09-27T07:45:25.254Z,18.25
2017-09-27T07:46:25.294Z,18.23
2017-09-27T07:48:19.806Z,18.45
2017-09-27T07:49:19.846Z,18.42
2017-09-27T07:51:14.278Z,18.52
2017-09-27T07:52:14.303Z,18.60
2017-09-27T07:54:08.847Z,18.76
2017-09-27T07:55:08.846Z,18.76
2017-09-27T07:57:03.266Z,18.78
2017-09-27T07:58:03.311Z,18.91
2017-09-27T07:59:57.830Z,18.94
2017-09-27T08:00:57.843Z,18.95
2017-09-27T08:02:52.311Z,19.00
2017-09-27T08:03:52.359Z,19.06
2017-09-27T08:05:46.816Z,19.13
2017-09-27T08:06:46.848Z,19.16
2017-09-27T08:08:52.911Z,19.19
2017-09-27T08:09:52.887Z,19.29
2017-09-27T08:11:46.344Z,19.29
2017-09-27T08:12:46.392Z,19.39
2017-09-27T08:14:42.451Z,19.50
2017-09-27T08:15:42.507Z,19.59
2017-09-27T08:17:36.994Z,19.62
2017-09-27T08:18:37.090Z,19.69
2017-09-27T08:20:31.491Z,19.87
2017-09-27T08:21:31.525Z,19.92
2017-09-27T08:23:25.964Z,19.98
2017-09-27T08:24:26.003Z,20.06
2017-09-27T08:26:20.692Z,20.08
2017-09-27T08:27:29.275Z,20.13
2017-09-27T08:29:15.003Z,20.10
2017-09-27T08:30:15.050Z,20.26
2017-09-27T08:32:09.554Z,20.28
2017-09-27T08:33:09.547Z,20.23
2017-09-27T08:35:04.051Z,20.17
2017-09-27T08:36:04.115Z,20.16
2017-09-27T08:37:58.638Z,20.41
2017-09-27T08:38:58.627Z,20.48
2017-09-27T08:40:53.075Z,20.69
2017-09-27T08:41:53.123Z,20.76
2017-09-27T08:43:55.403Z,20.97
2017-09-27T08:44:47.643Z,20.97
2017-09-27T08:46:42.131Z,21.13
2017-09-27T08:47:42.195Z,21.28
2017-09-27T08:49:36.659Z,21.54
2017-09-27T08:50:36.720Z,21.62
2017-09-27T08:52:31.155Z,21.91
2017-09-27T08:53:31.196Z,21.99
2017-09-27T08:55:25.715Z,22.27
2017-09-27T08:56:25.739Z,22.43
2017-09-27T08:58:20.235Z,22.70
2017-09-27T08:59:20.251Z,22.76
2017-09-27T09:01:14.753Z,22.80
2017-09-27T09:02:14.764Z,22.94
2017-09-27T09:04:09.276Z,23.05
2017-09-27T09:05:09.315Z,23.10
2017-09-27T09:07:03.772Z,23.13
2017-09-27T09:08:03.844Z,23.17
2017-09-27T09:09:58.308Z,23.33
2017-09-27T09:10:58.365Z,23.32
2017-09-27T09:12:52.835Z,23.53
2017-09-27T09:13:52.876Z,23.61
2017-09-27T09:15:47.404Z,23.66
2017-09-27T09:16:56.076Z,23.72
2017-09-27T09:18:41.933Z,23.94
2017-09-27T09:19:41.924Z,23.97
2017-09-27T09:21:35.427Z,24.13
2017-09-27T09:22:35.468Z,24.24
2017-09-27T09:24:30.173Z,24.30
2017-09-27T09:25:29.982Z,24.43
2017-09-27T09:27:24.509Z,24.61
2017-09-27T09:28:24.494Z,24.78
2017-09-27T09:30:20.469Z,25.00
2017-09-27T09:31:20.510Z,25.10
2017-09-27T09:33:35.349Z,25.23
2017-09-27T09:34:26.613Z,25.28
2017-09-27T09:36:32.627Z,25.54
2017-09-27T09:37:32.693Z,25.60
2017-09-27T09:39:27.173Z,25.76
2017-09-27T09:40:27.221Z,25.85
2017-09-27T09:42:21.725Z,26.09
2017-09-27T09:43:21.773Z,26.21
2017-09-27T09:45:27.782Z,26.28
2017-09-27T09:46:27.821Z,26.29
2017-09-27T09:48:23.781Z,26.52
2017-09-27T09:49:23.837Z,26.58
2017-09-27T09:51:29.862Z,26.89
2017-09-27T09:52:29.902Z,26.91
2017-09-27T09:54:24.358Z,27.28
2017-09-27T09:55:24.414Z,27.29
2017-09-27T09:57:20.478Z,27.46
2017-09-27T09:58:20.470Z,27.65
2017-09-27T10:00:26.670Z,27.87
2017-09-27T10:01:26.734Z,28.00
2017-09-27T10:03:22.222Z,28.15
2017-09-27T10:04:22.230Z,28.33
2017-09-27T10:06:16.758Z,28.61
2017-09-27T10:07:16.782Z,28.66
2017-09-27T10:09:12.854Z,28.89
2017-09-27T10:10:12.823Z,29.00
2017-09-27T10:12:07.318Z,29.30
2017-09-27T10:13:07.344Z,29.36
2017-09-27T10:15:01.847Z,29.53
2017-09-27T10:16:01.887Z,29.78
2017-09-27T10:17:55.374Z,30.11
2017-09-27T10:18:55.406Z,30.15
2017-09-27T10:20:49.928Z,30.43
2017-09-27T10:21:49.991Z,30.46
2017-09-27T10:23:44.465Z,30.94
2017-09-27T10:24:44.498Z,31.04
2017-09-27T10:26:38.959Z,31.25
2017-09-27T10:27:39.007Z,31.39
2017-09-27T10:29:33.728Z,31.78
2017-09-27T10:30:33.752Z,31.81
2017-09-27T10:32:28.223Z,32.11
2017-09-27T10:33:28.311Z,32.26
2017-09-27T10:35:22.784Z,32.66
2017-09-27T10:36:22.839Z,32.77
2017-09-27T10:38:17.296Z,33.09
2017-09-27T10:39:17.357Z,33.19
2017-09-27T10:41:11.904Z,33.60
2017-09-27T10:42:11.976Z,33.66
2017-09-27T10:44:06.368Z,33.87
2017-09-27T10:45:06.416Z,33.90
2017-09-27T10:47:02.464Z,33.53
2017-09-27T10:48:02.482Z,34.02
2017-09-27T10:49:56.952Z,34.24
2017-09-27T10:50:57.013Z,34.62
2017-09-27T10:52:50.520Z,35.22
2017-09-27T10:53:50.584Z,35.34
2017-09-27T10:55:44.078Z,35.65
2017-09-27T10:56:44.088Z,35.92
2017-09-27T10:58:38.592Z,36.03
2017-09-27T10:59:38.624Z,36.43
2017-09-27T11:01:32.154Z,36.78
2017-09-27T11:02:32.172Z,37.06
2017-09-27T11:04:25.665Z,37.55
2017-09-27T11:05:25.702Z,37.78
2017-09-27T11:07:20.201Z,38.25
2017-09-27T11:08:20.576Z,38.42
2017-09-27T11:10:13.737Z,38.76
2017-09-27T11:11:13.777Z,39.04
2017-09-27T11:13:08.337Z,39.55
2017-09-27T11:14:08.313Z,39.81
2017-09-27T11:16:02.829Z,40.16
2017-09-27T11:17:02.858Z,40.31
2017-09-27T11:18:57.370Z,40.60
2017-09-27T11:19:57.437Z,40.94
2017-09-27T11:21:51.996Z,41.36
2017-09-27T11:22:51.957Z,41.52
2017-09-27T11:24:46.461Z,41.73
2017-09-27T11:25:46.501Z,41.70
2017-09-27T11:27:40.067Z,41.51
2017-09-27T11:28:40.035Z,41.69
2017-09-27T11:30:33.516Z,41.98
2017-09-27T11:31:33.556Z,41.93
2017-09-27T11:33:28.059Z,42.13
2017-09-27T11:34:28.091Z,42.08
2017-09-27T11:36:22.579Z,41.47
2017-09-27T11:37:22.643Z,41.28
2017-09-27T11:39:17.124Z,41.14
2017-09-27T11:40:17.347Z,41.33
2017-09-27T11:42:11.284Z,41.69
2017-09-27T11:43:11.059Z,41.80
2017-09-27T11:45:04.339Z,41.21
2017-09-27T11:46:07.140Z,40.96
2017-09-27T11:48:00.707Z,40.69
2017-09-27T11:49:00.755Z,40.35
2017-09-27T11:50:57.239Z,40.07
2017-09-27T11:51:54.748Z,39.89
2017-09-27T11:53:48.844Z,39.86
2017-09-27T11:54:48.860Z,40.32
2017-09-27T11:56:43.388Z,42.12
2017-09-27T11:57:43.508Z,43.19
2017-09-27T11:59:38.188Z,44.41
2017-09-27T12:00:38.052Z,45.01
2017-09-27T12:02:31.213Z,45.72
2017-09-27T12:03:31.492Z,46.03
2017-09-27T12:05:28.452Z,46.66
2017-09-27T12:06:28.445Z,47.00
2017-09-27T12:08:34.844Z,47.67
2017-09-27T12:09:34.829Z,48.13
2017-09-27T12:11:28.209Z,48.30
2017-09-27T12:12:28.405Z,48.32
2017-09-27T12:14:23.477Z,48.13
2017-09-27T12:15:23.133Z,48.54
2017-09-27T12:17:16.837Z,49.01
2017-09-27T12:18:16.789Z,49.13
2017-09-27T12:20:12.269Z,49.58
2017-09-27T12:21:12.109Z,49.99
2017-09-27T12:23:05.477Z,50.40
2017-09-27T12:24:06.293Z,50.36
2017-09-27T12:26:00.046Z,50.74
2017-09-27T12:27:02.630Z,50.97
2017-09-27T12:28:54.645Z,50.95
2017-09-27T12:29:54.638Z,51.02
2017-09-27T12:31:49.598Z,51.02
2017-09-27T12:32:49.374Z,50.96
2017-09-27T12:34:43.030Z,51.30
2017-09-27T12:35:43.078Z,51.49
2017-09-27T12:37:37.246Z,51.82
2017-09-27T12:38:38.806Z,52.15
2017-09-27T12:40:31.863Z,52.12
2017-09-27T12:41:33.040Z,52.22
2017-09-27T12:43:37.070Z,52.20
2017-09-27T12:44:38.342Z,52.07
2017-09-27T12:46:33.846Z,52.16
2017-09-27T12:47:33.854Z,52.10
2017-09-27T12:49:27.142Z,52.29
2017-09-27T12:50:26.999Z,52.38
2017-09-27T12:52:21.703Z,52.42
2017-09-27T12:53:21.647Z,52.57
2017-09-27T12:55:17.967Z,52.57
2017-09-27T12:56:18.024Z,52.54
2017-09-27T12:58:12.471Z,49.10
2017-09-27T12:59:12.543Z,49.41
2017-09-27T13:01:06.112Z,50.95
2017-09-27T13:02:07.496Z,51.54
2017-09-27T13:04:13.703Z,52.29
2017-09-27T13:05:14.184Z,52.46
2017-09-27T13:07:08.264Z,52.46
2017-09-27T13:08:08.440Z,52.60
2017-09-27T13:10:03.048Z,52.50
2017-09-27T13:11:02.896Z,52.35
2017-09-27T13:12:57.600Z,52.32
2017-09-27T13:13:57.497Z,52.41
2017-09-27T13:15:53.312Z,52.16
2017-09-27T13:16:53.386Z,52.22
2017-09-27T13:18:55.144Z,52.32
2017-09-27T13:19:48.272Z,52.15
2017-09-27T13:21:41.639Z,52.09
2017-09-27T13:22:43.760Z,51.97
2017-09-27T13:24:37.296Z,52.12
2017-09-27T13:25:36.824Z,51.65
2017-09-27T13:27:30.856Z,51.69
2017-09-27T13:28:30.649Z,51.66
2017-09-27T13:30:23.960Z,51.17
2017-09-27T13:31:24.040Z,50.92
2017-09-27T13:33:29.025Z,51.02
2017-09-27T13:34:29.016Z,51.00
2017-09-27T13:36:25.121Z,50.31
2017-09-27T13:37:25.913Z,50.18
2017-09-27T13:39:19.825Z,49.78
2017-09-27T13:40:20.072Z,49.55
2017-09-27T13:42:16.073Z,47.63
2017-09-27T13:43:16.097Z,46.14
2017-09-27T13:45:09.826Z,44.36
2017-09-27T13:46:09.842Z,43.75
2017-09-27T13:48:04.145Z,42.83
2017-09-27T13:49:04.417Z,42.31
2017-09-27T13:50:58.961Z,41.99
2017-09-27T13:51:58.688Z,41.90
2017-09-27T13:53:53.209Z,41.41
2017-09-27T13:54:53.393Z,41.10
2017-09-27T13:56:47.514Z,40.35
2017-09-27T13:57:47.530Z,39.91
2017-09-27T13:59:43.013Z,39.28
2017-09-27T14:00:43.362Z,38.93
2017-09-27T14:02:37.586Z,38.65
2017-09-27T14:03:37.978Z,38.54
2017-09-27T14:05:33.588Z,38.07
2017-09-27T14:06:33.690Z,37.79
2017-09-27T14:08:28.217Z,37.41
2017-09-27T14:09:28.170Z,37.41
2017-09-27T14:11:24.010Z,37.15
2017-09-27T14:12:23.810Z,36.85
2017-09-27T14:14:17.410Z,36.80
2017-09-27T14:15:17.394Z,36.64
2017-09-27T14:17:11.939Z,36.43
2017-09-27T14:18:11.924Z,36.22
2017-09-27T14:20:06.370Z,35.77
2017-09-27T14:21:06.659Z,35.77
2017-09-27T14:22:59.619Z,35.48
2017-09-27T14:23:59.659Z,35.40
2017-09-27T14:25:56.947Z,35.36
2017-09-27T14:26:57.083Z,35.28
2017-09-27T14:29:01.948Z,35.21
2017-09-27T14:30:02.003Z,35.29
2017-09-27T14:31:57.700Z,35.09
2017-09-27T14:32:56.491Z,34.99
2017-09-27T14:34:51.219Z,34.87
2017-09-27T14:35:51.075Z,34.70
2017-09-27T14:37:44.563Z,34.58
2017-09-27T14:38:44.627Z,34.43
2017-09-27T14:40:39.083Z,34.27
2017-09-27T14:41:39.179Z,34.28
2017-09-27T14:43:37.188Z,34.13
2017-09-27T14:44:36.995Z,34.05
2017-09-27T14:46:31.396Z,33.88
2017-09-27T14:47:31.443Z,33.98
2017-09-27T14:49:26.347Z,33.90
2017-09-27T14:50:33.612Z,33.81
2017-09-27T14:52:19.468Z,33.63
2017-09-27T14:53:19.500Z,33.53
2017-09-27T14:55:14.028Z,33.63
2017-09-27T14:56:14.060Z,33.75
2017-09-27T14:58:08.500Z,33.87
2017-09-27T14:59:08.539Z,34.00
2017-09-27T15:01:03.036Z,34.24
2017-09-27T15:02:03.069Z,34.39
2017-09-27T15:03:59.468Z,34.62
2017-09-27T15:04:59.596Z,34.59
2017-09-27T15:06:52.732Z,34.88
2017-09-27T15:07:52.796Z,34.82
2017-09-27T15:09:47.340Z,34.59
2017-09-27T15:10:47.340Z,34.40
2017-09-27T15:12:41.788Z,33.90
2017-09-27T15:13:41.844Z,33.86
2017-09-27T15:15:36.341Z,33.61
2017-09-27T15:16:36.371Z,33.49
2017-09-27T15:18:29.844Z,33.06
2017-09-27T15:19:29.908Z,32.94
2017-09-27T15:21:28.348Z,32.62
2017-09-27T15:22:28.412Z,32.56
2017-09-27T15:24:23.052Z,32.43
2017-09-27T15:25:22.828Z,32.44
2017-09-27T15:27:16.076Z,32.26
2017-09-27T15:28:16.101Z,32.28
2017-09-27T15:30:10.604Z,32.41
2017-09-27T15:31:10.852Z,32.40
2017-09-27T15:33:05.149Z,32.69
2017-09-27T15:34:05.172Z,32.75
2017-09-27T15:35:59.693Z,32.94
2017-09-27T15:36:59.708Z,32.96
2017-09-27T15:38:54.204Z,33.03
2017-09-27T15:39:54.213Z,32.99
2017-09-27T15:41:48.781Z,32.96
2017-09-27T15:42:48.781Z,32.85
2017-09-27T15:44:43.316Z,32.60
2017-09-27T15:45:43.293Z,32.56
2017-09-27T15:47:36.813Z,32.41
2017-09-27T15:48:36.821Z,32.32
2017-09-27T15:50:31.294Z,32.14
2017-09-27T15:51:31.334Z,32.11
2017-09-27T15:53:25.837Z,31.84
2017-09-27T15:54:25.877Z,31.70
2017-09-27T15:56:20.382Z,31.54
2017-09-27T15:57:20.397Z,31.41
2017-09-27T15:59:14.869Z,31.23
2017-09-27T16:00:14.917Z,31.10
2017-09-27T16:02:09.445Z,30.98
2017-09-27T16:03:09.485Z,30.82
2017-09-27T16:05:04.053Z,30.62
2017-09-27T16:06:03.991Z,30.57
2017-09-27T16:07:58.526Z,30.32
2017-09-27T16:08:58.590Z,30.27
2017-09-27T16:10:55.773Z,30.07
2017-09-27T16:11:55.094Z,29.98
2017-09-27T16:13:48.310Z,29.76
2017-09-27T16:14:48.334Z,29.67
2017-09-27T16:16:44.079Z,29.48
2017-09-27T16:17:44.309Z,29.48
2017-09-27T16:19:38.631Z,29.36
2017-09-27T16:20:38.534Z,29.34
2017-09-27T16:22:33.030Z,29.08
2017-09-27T16:23:33.078Z,29.08
2017-09-27T16:25:26.726Z,28.98
2017-09-27T16:26:26.598Z,28.96
2017-09-27T16:28:21.142Z,28.83
2017-09-27T16:29:21.189Z,28.70
2017-09-27T16:31:17.718Z,28.61
2017-09-27T16:32:17.789Z,28.56
2017-09-27T16:34:11.970Z,28.41
2017-09-27T16:35:12.006Z,28.37
2017-09-27T16:37:05.494Z,28.19
2017-09-27T16:38:05.517Z,28.17
2017-09-27T16:40:00.038Z,28.09
2017-09-27T16:41:00.148Z,28.00
2017-09-27T16:42:53.644Z,27.96
2017-09-27T16:43:53.772Z,27.85
2017-09-27T16:45:47.196Z,27.75
2017-09-27T16:46:55.820Z,27.66
2017-09-27T16:48:42.324Z,27.54
2017-09-27T16:49:42.892Z,27.39
2017-09-27T16:51:35.412Z,27.46
2017-09-27T16:52:35.516Z,27.32
2017-09-27T16:54:29.998Z,27.24
2017-09-27T16:55:30.044Z,27.18
2017-09-27T16:57:24.477Z,27.06
2017-09-27T16:58:24.532Z,26.92
2017-09-27T17:00:27.810Z,26.92
2017-09-27T17:01:19.068Z,26.84
2017-09-27T17:03:14.604Z,26.69
2017-09-27T17:04:14.717Z,26.58
2017-09-27T17:06:10.725Z,26.54
2017-09-27T17:07:11.060Z,26.57
2017-09-27T17:09:04.373Z,26.43
2017-09-27T17:10:04.301Z,26.43
2017-09-27T17:12:11.557Z,26.20
2017-09-27T17:13:11.509Z,26.10
2017-09-27T17:15:16.157Z,26.07
2017-09-27T17:16:05.765Z,26.05
2017-09-27T17:17:59.262Z,25.91
2017-09-27T17:18:59.326Z,25.90
2017-09-27T17:20:54.086Z,25.77
2017-09-27T17:21:54.109Z,25.65
2017-09-27T17:23:48.608Z,25.58
2017-09-27T17:24:48.637Z,25.54
2017-09-27T17:26:46.807Z,25.38
2017-09-27T17:27:45.405Z,25.32
2017-09-27T17:29:38.798Z,25.30
2017-09-27T17:30:49.046Z,25.24
2017-09-27T17:32:34.820Z,25.02
2017-09-27T17:33:34.340Z,25.08
2017-09-27T17:35:26.700Z,24.99
2017-09-27T17:36:26.478Z,25.03
2017-09-27T17:38:32.050Z,24.87
2017-09-27T17:39:31.931Z,24.83
2017-09-27T17:41:26.323Z,24.71
2017-09-27T17:42:27.449Z,24.61
2017-09-27T17:44:21.979Z,24.53
2017-09-27T17:45:21.544Z,24.47
2017-09-27T17:47:26.897Z,24.45
2017-09-27T17:48:27.217Z,24.28
2017-09-27T17:50:20.679Z,24.34
2017-09-27T17:51:20.568Z,24.15
2017-09-27T17:53:16.720Z,24.21
2017-09-27T17:54:16.870Z,24.21
2017-09-27T17:56:12.432Z,24.12
2017-09-27T17:57:11.056Z,24.03
2017-09-27T17:59:07.126Z,23.98
2017-09-27T18:00:07.238Z,24.03
2017-09-27T18:02:04.110Z,23.95
2017-09-27T18:04:59.606Z,23.79
2017-09-27T18:07:49.382Z,23.69
2017-09-27T18:08:50.901Z,23.66
2017-09-27T18:10:42.708Z,23.50
2017-09-27T18:11:53.007Z,23.51
2017-09-27T18:13:37.151Z,23.50
2017-09-27T18:14:37.183Z,23.43
2017-09-27T18:16:31.892Z,23.35
2017-09-27T18:17:33.092Z,23.33
2017-09-27T18:19:25.621Z,23.28
2017-09-27T18:20:25.532Z,23.23
2017-09-27T18:22:20.213Z,23.22
2017-09-27T18:23:20.845Z,23.17
2017-09-27T18:25:15.221Z,23.16
2017-09-27T18:26:16.349Z,23.12
2017-09-27T18:28:08.788Z,23.07
2017-09-27T18:29:09.207Z,23.01
2017-09-27T18:31:02.733Z,22.98
2017-09-27T18:32:02.349Z,22.94
2017-09-27T18:33:56.312Z,22.82
2017-09-27T18:34:55.957Z,22.76
2017-09-27T18:36:50.637Z,22.73
2017-09-27T18:37:50.397Z,22.72
2017-09-27T18:39:45.244Z,22.70
2017-09-27T18:40:45.183Z,22.72
2017-09-27T18:42:40.909Z,22.64
2017-09-27T18:43:50.006Z,22.57
2017-09-27T18:45:35.381Z,22.54
2017-09-27T18:46:35.685Z,22.46
2017-09-27T18:48:40.509Z,22.36
2017-09-27T18:49:40.509Z,22.36
2017-09-27T18:51:35.181Z,22.25
2017-09-27T18:52:35.030Z,22.31
2017-09-27T18:54:37.358Z,22.18